Jj Sky — VRJA6 — position and weather

sailwx.info

Track history (hours):
 
Tides and Currents Weather Stations Pressure Air Temp Water Temp Dewpoint Dewpoint Depression Visibility Wind Speed Wind Dir Waves Ship Positions

Jj Sky

Last reported at 2014-Jul-31 06:28 UTC. Time now 2014-Jul-31 07:27 UTC.
Position N 35°37' E 139°46'.

Length 148 m; draft 7.6 m.

Type: Ship. MMSI: 477397500.

Date/timePositionNaut miles runAvg speedWind from/ knotsBaromVisibWave heightAir tempDewpointWater temp
2014-Jul-31 06:28N 35°37' E 139°46'0 0.0
2014-Jul-31 05:28N 35°37' E 139°46'0 0.0
2014-Jul-31 04:34N 35°37' E 139°46'0 0.0
2014-Jul-31 03:27N 35°37' E 139°46'0 0.0
2014-Jul-31 02:33N 35°37' E 139°46'0 0.0
2014-Jul-31 01:32N 35°37' E 139°46'0 0.0
2014-Jul-31 00:26N 35°37' E 139°46'0 0.0
2014-Jul-30 23:31N 35°37' E 139°46'0 0.0
2014-Jul-30 22:33N 35°37' E 139°46'7 7.0
2014-Jul-30 21:33N 35°32' E 139°52'1313.3
2014-Jul-30 20:33N 35°21' E 139°45'1212.3
2014-Jul-30 19:33N 35°08' E 139°46'1515.1
2014-Jul-30 18:33N 34°57' E 139°33'1514.3
2014-Jul-30 17:30N 34°48' E 139°18'  
2014-Jul-28 08:17N 31°06' E 122°27'3813.4
2014-Jul-28 05:29N 31°18' E 121°46'5 2.6
2014-Jul-28 03:29N 31°20' E 121°40'0 0.0
2014-Jul-27 21:30N 31°20' E 121°40'0 0.0
2014-Jul-27 14:22N 31°20' E 121°40'0 0.0
2014-Jul-27 12:10N 31°20' E 121°40'1 1.6
2014-Jul-27 11:22N 31°20' E 121°41'3411.6
2014-Jul-27 08:23N 31°06' E 122°19'  
2014-Jul-25 00:16N 34°54' E 139°23'1216.1
2014-Jul-24 23:33N 35°00' E 139°34'1616.7
2014-Jul-24 22:33N 35°13' E 139°46'1313.4
2014-Jul-24 21:33N 35°27' E 139°43'2 1.7
2014-Jul-24 20:31N 35°27' E 139°41'0 0.0
2014-Jul-24 19:31N 35°27' E 139°41'0 0.0
2014-Jul-24 18:31N 35°27' E 139°41'0 0.0
2014-Jul-24 17:33N 35°27' E 139°41'0 0.0
2014-Jul-24 16:33N 35°27' E 139°41'0 0.0
2014-Jul-24 15:29N 35°27' E 139°41'0 0.0
2014-Jul-24 14:32N 35°27' E 139°41'0 0.0
2014-Jul-24 13:31N 35°27' E 139°41'0 0.0
2014-Jul-24 12:31N 35°27' E 139°41'0 0.0
2014-Jul-24 11:31N 35°27' E 139°41'0 0.0
2014-Jul-24 10:33N 35°27' E 139°41'1 0.6
2014-Jul-24 09:33N 35°28' E 139°42'8 8.4
2014-Jul-24 08:33N 35°34' E 139°49'5 4.2
2014-Jul-24 07:27N 35°37' E 139°46'0 0.0
2014-Jul-24 06:33N 35°37' E 139°46'0 0.0
2014-Jul-24 05:32N 35°37' E 139°46'0 0.0
2014-Jul-24 04:32N 35°37' E 139°46'0 0.0
2014-Jul-24 03:25N 35°37' E 139°46'0 0.0
2014-Jul-24 02:32N 35°37' E 139°46'0 0.0
2014-Jul-24 01:31N 35°37' E 139°46'0 0.0
2014-Jul-24 00:25N 35°37' E 139°46'0 0.0
2014-Jul-23 23:30N 35°37' E 139°46'0 0.0
2014-Jul-23 22:33N 35°37' E 139°46'8 8.3
2014-Jul-23 21:33N 35°31' E 139°52'1313.3
2014-Jul-23 20:33N 35°19' E 139°44'1111.2
2014-Jul-23 19:33N 35°08' E 139°45'1212.3
2014-Jul-23 18:33N 34°59' E 139°35'1414.4
2014-Jul-23 17:33N 34°51' E 139°21'  
2014-Jul-21 13:17N 30°58' E 122°56'3216.0
2014-Jul-21 11:17N 31°02' E 122°19'1412.2
2014-Jul-21 10:10N 31°04' E 122°03'1012.4
2014-Jul-21 09:24N 31°09' E 121°53'  
Track history (hours):
 
Tides and Currents Weather Stations Pressure Air Temp Water Temp Dewpoint Dewpoint Depression Visibility Wind Speed Wind Dir Waves Ship Positions

Jj Sky

Last reported at 2014-Jul-31 06:28 UTC. Time now 2014-Jul-31 07:27 UTC.
Position N 35°37' E 139°46'.

Length 148 m; draft 7.6 m.

Type: Ship. MMSI: 477397500.

Date/timePositionNaut miles runAvg speedWind from/ knotsBaromVisibWave heightAir tempDewpointWater temp
2014-Jul-31 06:28N 35°37' E 139°46'0 0.0
2014-Jul-31 05:28N 35°37' E 139°46'0 0.0
2014-Jul-31 04:34N 35°37' E 139°46'0 0.0
2014-Jul-31 03:27N 35°37' E 139°46'0 0.0
2014-Jul-31 02:33N 35°37' E 139°46'0 0.0
2014-Jul-31 01:32N 35°37' E 139°46'0 0.0
2014-Jul-31 00:26N 35°37' E 139°46'0 0.0
2014-Jul-30 23:31N 35°37' E 139°46'0 0.0
2014-Jul-30 22:33N 35°37' E 139°46'7 7.0
2014-Jul-30 21:33N 35°32' E 139°52'1313.3
2014-Jul-30 20:33N 35°21' E 139°45'1212.3
2014-Jul-30 19:33N 35°08' E 139°46'1515.1
2014-Jul-30 18:33N 34°57' E 139°33'1514.3
2014-Jul-30 17:30N 34°48' E 139°18'  
2014-Jul-28 08:17N 31°06' E 122°27'3813.4
2014-Jul-28 05:29N 31°18' E 121°46'5 2.6
2014-Jul-28 03:29N 31°20' E 121°40'0 0.0
2014-Jul-27 21:30N 31°20' E 121°40'0 0.0
2014-Jul-27 14:22N 31°20' E 121°40'0 0.0
2014-Jul-27 12:10N 31°20' E 121°40'1 1.6
2014-Jul-27 11:22N 31°20' E 121°41'3411.6
2014-Jul-27 08:23N 31°06' E 122°19'  
2014-Jul-25 00:16N 34°54' E 139°23'1216.1
2014-Jul-24 23:33N 35°00' E 139°34'1616.7
2014-Jul-24 22:33N 35°13' E 139°46'1313.4
2014-Jul-24 21:33N 35°27' E 139°43'2 1.7
2014-Jul-24 20:31N 35°27' E 139°41'0 0.0
2014-Jul-24 19:31N 35°27' E 139°41'0 0.0
2014-Jul-24 18:31N 35°27' E 139°41'0 0.0
2014-Jul-24 17:33N 35°27' E 139°41'0 0.0
2014-Jul-24 16:33N 35°27' E 139°41'0 0.0
2014-Jul-24 15:29N 35°27' E 139°41'0 0.0
2014-Jul-24 14:32N 35°27' E 139°41'0 0.0
2014-Jul-24 13:31N 35°27' E 139°41'0 0.0
2014-Jul-24 12:31N 35°27' E 139°41'0 0.0
2014-Jul-24 11:31N 35°27' E 139°41'0 0.0
2014-Jul-24 10:33N 35°27' E 139°41'1 0.6
2014-Jul-24 09:33N 35°28' E 139°42'8 8.4
2014-Jul-24 08:33N 35°34' E 139°49'5 4.2
2014-Jul-24 07:27N 35°37' E 139°46'0 0.0
2014-Jul-24 06:33N 35°37' E 139°46'0 0.0
2014-Jul-24 05:32N 35°37' E 139°46'0 0.0
2014-Jul-24 04:32N 35°37' E 139°46'0 0.0
2014-Jul-24 03:25N 35°37' E 139°46'0 0.0
2014-Jul-24 02:32N 35°37' E 139°46'0 0.0
2014-Jul-24 01:31N 35°37' E 139°46'0 0.0
2014-Jul-24 00:25N 35°37' E 139°46'0 0.0
2014-Jul-23 23:30N 35°37' E 139°46'0 0.0
2014-Jul-23 22:33N 35°37' E 139°46'8 8.3
2014-Jul-23 21:33N 35°31' E 139°52'1313.3
2014-Jul-23 20:33N 35°19' E 139°44'1111.2
2014-Jul-23 19:33N 35°08' E 139°45'1212.3
2014-Jul-23 18:33N 34°59' E 139°35'1414.4
2014-Jul-23 17:33N 34°51' E 139°21'  
2014-Jul-21 13:17N 30°58' E 122°56'3216.0
2014-Jul-21 11:17N 31°02' E 122°19'1412.2
2014-Jul-21 10:10N 31°04' E 122°03'1012.4
2014-Jul-21 09:24N 31°09' E 121°53'  

Dump ship's entire track history